sensor_id;sensor_type;location;lat;lon;timestamp;P1;durP1;ratioP1;P2;durP2;ratioP2
6374;SDS011;35400;45.472;-122.822;2022-09-20T00:03:37;7.05;;;5.25;;
6374;SDS011;35400;45.472;-122.822;2022-09-20T00:06:07;8.68;;;5.00;;
6374;SDS011;35400;45.472;-122.822;2022-09-20T00:08:35;6.30;;;5.07;;
6374;SDS011;35400;45.472;-122.822;2022-09-20T00:11:04;6.90;;;4.75;;
6374;SDS011;35400;45.472;-122.822;2022-09-20T00:13:34;7.00;;;4.80;;
6374;SDS011;35400;45.472;-122.822;2022-09-20T00:16:04;5.60;;;5.00;;
6374;SDS011;35400;45.472;-122.822;2022-09-20T00:18:32;5.13;;;4.63;;
6374;SDS011;35400;45.472;-122.822;2022-09-20T00:20:59;7.90;;;4.90;;
6374;SDS011;35400;45.472;-122.822;2022-09-20T00:23:26;8.93;;;5.25;;
6374;SDS011;35400;45.472;-122.822;2022-09-20T00:25:55;6.07;;;4.80;;
6374;SDS011;35400;45.472;-122.822;2022-09-20T00:28:23;6.25;;;4.95;;
6374;SDS011;35400;45.472;-122.822;2022-09-20T00:30:52;5.40;;;4.82;;
6374;SDS011;35400;45.472;-122.822;2022-09-20T00:33:20;5.72;;;4.47;;
6374;SDS011;35400;45.472;-122.822;2022-09-20T00:35:49;5.63;;;4.65;;
6374;SDS011;35400;45.472;-122.822;2022-09-20T00:38:15;6.95;;;5.18;;
6374;SDS011;35400;45.472;-122.822;2022-09-20T00:40:43;9.05;;;5.07;;
6374;SDS011;35400;45.472;-122.822;2022-09-20T00:43:16;5.63;;;4.78;;
6374;SDS011;35400;45.472;-122.822;2022-09-20T00:45:44;8.82;;;5.00;;
6374;SDS011;35400;45.472;-122.822;2022-09-20T00:48:18;8.43;;;5.10;;
6374;SDS011;35400;45.472;-122.822;2022-09-20T00:50:54;7.68;;;5.20;;
6374;SDS011;35400;45.472;-122.822;2022-09-20T00:53:28;7.72;;;5.25;;
6374;SDS011;35400;45.472;-122.822;2022-09-20T00:56:03;11.68;;;5.13;;
6374;SDS011;35400;45.472;-122.822;2022-09-20T00:58:40;6.90;;;4.80;;
6374;SDS011;35400;45.472;-122.822;2022-09-20T01:01:11;6.70;;;4.90;;
6374;SDS011;35400;45.472;-122.822;2022-09-20T01:03:39;6.63;;;5.20;;
6374;SDS011;35400;45.472;-122.822;2022-09-20T01:06:09;7.95;;;5.00;;
6374;SDS011;35400;45.472;-122.822;2022-09-20T01:08:39;6.35;;;4.93;;
6374;SDS011;35400;45.472;-122.822;2022-09-20T01:11:10;12.45;;;5.78;;
6374;SDS011;35400;45.472;-122.822;2022-09-20T01:13:37;8.88;;;5.35;;
6374;SDS011;35400;45.472;-122.822;2022-09-20T01:16:04;8.50;;;5.13;;
6374;SDS011;35400;45.472;-122.822;2022-09-20T01:18:33;5.78;;;5.10;;
6374;SDS011;35400;45.472;-122.822;2022-09-20T01:21:02;8.00;;;5.18;;
6374;SDS011;35400;45.472;-122.822;2022-09-20T01:23:45;7.80;;;4.85;;
6374;SDS011;35400;45.472;-122.822;2022-09-20T01:29:30;6.85;;;5.07;;
6374;SDS011;35400;45.472;-122.822;2022-09-20T01:32:32;6.03;;;5.25;;
6374;SDS011;35400;45.472;-122.822;2022-09-20T01:35:22;7.63;;;5.38;;
6374;SDS011;35400;45.472;-122.822;2022-09-20T01:40:58;7.78;;;5.18;;
6374;SDS011;35400;45.472;-122.822;2022-09-20T01:43:39;8.13;;;5.43;;
6374;SDS011;35400;45.472;-122.822;2022-09-20T01:46:30;7.78;;;4.70;;
6374;SDS011;35400;45.472;-122.822;2022-09-20T01:55:03;8.52;;;5.53;;
6374;SDS011;35400;45.472;-122.822;2022-09-20T02:00:24;7.30;;;5.13;;
6374;SDS011;35400;45.472;-122.822;2022-09-20T02:06:11;8.90;;;5.25;;
6374;SDS011;35400;45.472;-122.822;2022-09-20T02:14:25;11.52;;;5.32;;
6374;SDS011;35400;45.472;-122.822;2022-09-20T02:17:34;7.60;;;5.00;;
6374;SDS011;35400;45.472;-122.822;2022-09-20T02:42:43;8.13;;;5.63;;
6374;SDS011;35400;45.472;-122.822;2022-09-20T02:48:07;11.55;;;5.68;;
6374;SDS011;35400;45.472;-122.822;2022-09-20T02:50:37;8.77;;;5.68;;
6374;SDS011;35400;45.472;-122.822;2022-09-20T02:58:39;9.43;;;5.63;;
6374;SDS011;35400;45.472;-122.822;2022-09-20T03:03:57;7.78;;;5.78;;
6374;SDS011;35400;45.472;-122.822;2022-09-20T03:12:36;8.80;;;5.85;;
6374;SDS011;35400;45.472;-122.822;2022-09-20T03:18:47;13.02;;;9.10;;
6374;SDS011;35400;45.472;-122.822;2022-09-20T03:24:58;9.85;;;6.70;;
6374;SDS011;35400;45.472;-122.822;2022-09-20T03:28:34;8.40;;;6.55;;
6374;SDS011;35400;45.472;-122.822;2022-09-20T03:30:54;9.40;;;6.45;;
6374;SDS011;35400;45.472;-122.822;2022-09-20T03:36:12;9.65;;;6.18;;
6374;SDS011;35400;45.472;-122.822;2022-09-20T03:39:12;9.00;;;5.85;;
6374;SDS011;35400;45.472;-122.822;2022-09-20T03:50:55;9.50;;;5.88;;
6374;SDS011;35400;45.472;-122.822;2022-09-20T03:53:56;8.88;;;5.57;;
6374;SDS011;35400;45.472;-122.822;2022-09-20T04:02:21;8.52;;;5.63;;
6374;SDS011;35400;45.472;-122.822;2022-09-20T04:07:51;10.57;;;6.05;;
6374;SDS011;35400;45.472;-122.822;2022-09-20T04:13:12;8.75;;;6.25;;
6374;SDS011;35400;45.472;-122.822;2022-09-20T04:15:55;11.15;;;6.28;;
6374;SDS011;35400;45.472;-122.822;2022-09-20T04:19:10;11.90;;;7.55;;
6374;SDS011;35400;45.472;-122.822;2022-09-20T04:22:00;11.32;;;9.15;;
6374;SDS011;35400;45.472;-122.822;2022-09-20T04:26:58;15.13;;;9.67;;
6374;SDS011;35400;45.472;-122.822;2022-09-20T04:38:18;11.88;;;7.70;;
6374;SDS011;35400;45.472;-122.822;2022-09-20T05:00:15;8.37;;;6.00;;
6374;SDS011;35400;45.472;-122.822;2022-09-20T05:11:26;8.40;;;6.23;;
6374;SDS011;35400;45.472;-122.822;2022-09-20T05:23:31;8.67;;;6.40;;
6374;SDS011;35400;45.472;-122.822;2022-09-20T05:32:17;10.20;;;6.80;;
6374;SDS011;35400;45.472;-122.822;2022-09-20T06:02:33;9.90;;;6.90;;
6374;SDS011;35400;45.472;-122.822;2022-09-20T06:05:09;8.47;;;6.80;;
6374;SDS011;35400;45.472;-122.822;2022-09-20T06:13:28;8.00;;;7.10;;
6374;SDS011;35400;45.472;-122.822;2022-09-20T06:16:13;9.13;;;6.97;;
6374;SDS011;35400;45.472;-122.822;2022-09-20T06:24:53;9.80;;;7.17;;
6374;SDS011;35400;45.472;-122.822;2022-09-20T06:30:25;12.40;;;7.93;;
6374;SDS011;35400;45.472;-122.822;2022-09-20T06:33:13;8.23;;;6.73;;
6374;SDS011;35400;45.472;-122.822;2022-09-20T06:35:44;9.63;;;6.93;;
6374;SDS011;35400;45.472;-122.822;2022-09-20T06:41:50;9.70;;;8.43;;
6374;SDS011;35400;45.472;-122.822;2022-09-20T06:44:17;11.10;;;8.27;;
6374;SDS011;35400;45.472;-122.822;2022-09-20T06:46:44;9.03;;;7.70;;
6374;SDS011;35400;45.472;-122.822;2022-09-20T06:49:10;11.13;;;9.27;;
6374;SDS011;35400;45.472;-122.822;2022-09-20T06:51:37;10.60;;;9.10;;
6374;SDS011;35400;45.472;-122.822;2022-09-20T06:54:05;12.73;;;10.30;;
6374;SDS011;35400;45.472;-122.822;2022-09-20T06:56:36;13.90;;;10.70;;
6374;SDS011;35400;45.472;-122.822;2022-09-20T06:59:03;18.63;;;12.90;;
6374;SDS011;35400;45.472;-122.822;2022-09-20T07:01:35;18.43;;;13.53;;
6374;SDS011;35400;45.472;-122.822;2022-09-20T07:04:03;17.73;;;13.27;;
6374;SDS011;35400;45.472;-122.822;2022-09-20T07:06:31;16.53;;;12.60;;
6374;SDS011;35400;45.472;-122.822;2022-09-20T07:08:58;17.53;;;13.60;;
6374;SDS011;35400;45.472;-122.822;2022-09-20T07:11:25;16.10;;;13.00;;
6374;SDS011;35400;45.472;-122.822;2022-09-20T07:13:53;18.97;;;11.83;;
6374;SDS011;35400;45.472;-122.822;2022-09-20T07:16:22;12.47;;;10.47;;
6374;SDS011;35400;45.472;-122.822;2022-09-20T07:18:51;14.90;;;11.37;;
6374;SDS011;35400;45.472;-122.822;2022-09-20T07:21:18;13.67;;;9.97;;
6374;SDS011;35400;45.472;-122.822;2022-09-20T07:23:46;12.50;;;9.70;;
6374;SDS011;35400;45.472;-122.822;2022-09-20T07:26:17;11.77;;;10.37;;
6374;SDS011;35400;45.472;-122.822;2022-09-20T07:28:52;14.03;;;9.23;;
6374;SDS011;35400;45.472;-122.822;2022-09-20T07:31:21;12.67;;;9.30;;
6374;SDS011;35400;45.472;-122.822;2022-09-20T07:33:49;11.37;;;8.10;;
6374;SDS011;35400;45.472;-122.822;2022-09-20T07:36:16;10.10;;;7.63;;
6374;SDS011;35400;45.472;-122.822;2022-09-20T07:38:47;9.27;;;7.30;;
6374;SDS011;35400;45.472;-122.822;2022-09-20T07:41:15;8.80;;;6.70;;
6374;SDS011;35400;45.472;-122.822;2022-09-20T07:43:47;9.63;;;7.00;;
6374;SDS011;35400;45.472;-122.822;2022-09-20T07:46:15;10.37;;;7.17;;
6374;SDS011;35400;45.472;-122.822;2022-09-20T07:48:43;7.63;;;6.60;;
6374;SDS011;35400;45.472;-122.822;2022-09-20T07:51:11;7.20;;;6.50;;
6374;SDS011;35400;45.472;-122.822;2022-09-20T07:53:38;6.93;;;5.93;;
6374;SDS011;35400;45.472;-122.822;2022-09-20T07:56:08;7.07;;;6.23;;
6374;SDS011;35400;45.472;-122.822;2022-09-20T07:58:37;6.67;;;5.50;;
6374;SDS011;35400;45.472;-122.822;2022-09-20T08:01:06;8.07;;;5.83;;
6374;SDS011;35400;45.472;-122.822;2022-09-20T08:03:35;8.43;;;6.27;;
6374;SDS011;35400;45.472;-122.822;2022-09-20T08:06:11;8.30;;;6.13;;
6374;SDS011;35400;45.472;-122.822;2022-09-20T08:08:43;8.13;;;5.70;;
6374;SDS011;35400;45.472;-122.822;2022-09-20T08:11:10;5.93;;;5.23;;
6374;SDS011;35400;45.472;-122.822;2022-09-20T08:13:46;8.17;;;5.30;;
6374;SDS011;35400;45.472;-122.822;2022-09-20T08:16:14;5.67;;;5.07;;
6374;SDS011;35400;45.472;-122.822;2022-09-20T08:18:45;6.57;;;5.00;;
6374;SDS011;35400;45.472;-122.822;2022-09-20T08:21:14;7.70;;;5.57;;
6374;SDS011;35400;45.472;-122.822;2022-09-20T08:23:42;6.37;;;5.40;;
6374;SDS011;35400;45.472;-122.822;2022-09-20T08:26:12;6.47;;;4.80;;
6374;SDS011;35400;45.472;-122.822;2022-09-20T08:28:43;6.80;;;5.33;;
6374;SDS011;35400;45.472;-122.822;2022-09-20T08:31:15;5.90;;;5.30;;
6374;SDS011;35400;45.472;-122.822;2022-09-20T08:33:46;5.87;;;4.87;;
6374;SDS011;35400;45.472;-122.822;2022-09-20T08:36:16;5.83;;;5.07;;
6374;SDS011;35400;45.472;-122.822;2022-09-20T08:38:50;7.10;;;4.63;;
6374;SDS011;35400;45.472;-122.822;2022-09-20T08:41:37;5.07;;;4.37;;
6374;SDS011;35400;45.472;-122.822;2022-09-20T08:44:32;6.93;;;4.40;;
6374;SDS011;35400;45.472;-122.822;2022-09-20T08:50:02;4.93;;;4.10;;
6374;SDS011;35400;45.472;-122.822;2022-09-20T08:52:32;6.97;;;4.40;;
6374;SDS011;35400;45.472;-122.822;2022-09-20T08:55:15;4.93;;;4.37;;
6374;SDS011;35400;45.472;-122.822;2022-09-20T08:57:56;5.97;;;4.43;;
6374;SDS011;35400;45.472;-122.822;2022-09-20T09:00:25;6.43;;;4.30;;
6374;SDS011;35400;45.472;-122.822;2022-09-20T09:02:57;4.83;;;3.93;;
6374;SDS011;35400;45.472;-122.822;2022-09-20T09:05:30;5.27;;;4.17;;
6374;SDS011;35400;45.472;-122.822;2022-09-20T09:08:08;5.77;;;4.67;;
6374;SDS011;35400;45.472;-122.822;2022-09-20T09:10:49;7.47;;;4.50;;
6374;SDS011;35400;45.472;-122.822;2022-09-20T09:13:30;5.90;;;4.43;;
6374;SDS011;35400;45.472;-122.822;2022-09-20T09:15:59;8.27;;;5.00;;
6374;SDS011;35400;45.472;-122.822;2022-09-20T09:18:33;6.07;;;4.43;;
6374;SDS011;35400;45.472;-122.822;2022-09-20T09:21:02;7.63;;;4.73;;
6374;SDS011;35400;45.472;-122.822;2022-09-20T09:23:39;5.03;;;4.43;;
6374;SDS011;35400;45.472;-122.822;2022-09-20T09:26:14;5.53;;;4.57;;
6374;SDS011;35400;45.472;-122.822;2022-09-20T09:28:46;5.27;;;4.40;;
6374;SDS011;35400;45.472;-122.822;2022-09-20T09:31:48;5.50;;;4.60;;
6374;SDS011;35400;45.472;-122.822;2022-09-20T09:34:30;5.50;;;4.30;;
6374;SDS011;35400;45.472;-122.822;2022-09-20T09:37:03;7.43;;;4.93;;
6374;SDS011;35400;45.472;-122.822;2022-09-20T09:39:30;6.20;;;4.70;;
6374;SDS011;35400;45.472;-122.822;2022-09-20T09:42:00;6.53;;;4.70;;
6374;SDS011;35400;45.472;-122.822;2022-09-20T09:44:46;6.07;;;4.23;;
6374;SDS011;35400;45.472;-122.822;2022-09-20T09:47:24;5.47;;;4.47;;
6374;SDS011;35400;45.472;-122.822;2022-09-20T09:49:56;5.60;;;4.10;;
6374;SDS011;35400;45.472;-122.822;2022-09-20T09:52:24;5.40;;;3.93;;
6374;SDS011;35400;45.472;-122.822;2022-09-20T09:54:57;5.30;;;4.07;;
6374;SDS011;35400;45.472;-122.822;2022-09-20T10:00:21;5.37;;;4.30;;
6374;SDS011;35400;45.472;-122.822;2022-09-20T10:03:01;4.83;;;3.57;;
6374;SDS011;35400;45.472;-122.822;2022-09-20T10:05:34;5.60;;;3.73;;
6374;SDS011;35400;45.472;-122.822;2022-09-20T10:16:59;5.80;;;3.97;;
6374;SDS011;35400;45.472;-122.822;2022-09-20T10:19:13;4.23;;;3.83;;
6374;SDS011;35400;45.472;-122.822;2022-09-20T10:25:02;4.30;;;3.33;;
6374;SDS011;35400;45.472;-122.822;2022-09-20T10:27:43;4.10;;;3.00;;
6374;SDS011;35400;45.472;-122.822;2022-09-20T10:30:24;3.87;;;2.60;;
6374;SDS011;35400;45.472;-122.822;2022-09-20T10:33:27;3.03;;;2.50;;
6374;SDS011;35400;45.472;-122.822;2022-09-20T10:39:02;3.03;;;2.80;;
6374;SDS011;35400;45.472;-122.822;2022-09-20T10:53:21;4.93;;;3.00;;
6374;SDS011;35400;45.472;-122.822;2022-09-20T11:04:25;4.07;;;2.93;;
6374;SDS011;35400;45.472;-122.822;2022-09-20T11:09:50;2.83;;;2.23;;
6374;SDS011;35400;45.472;-122.822;2022-09-20T11:12:41;2.60;;;2.40;;
6374;SDS011;35400;45.472;-122.822;2022-09-20T11:18:17;3.20;;;2.43;;
6374;SDS011;35400;45.472;-122.822;2022-09-20T11:21:14;2.60;;;2.17;;
6374;SDS011;35400;45.472;-122.822;2022-09-20T11:32:29;2.60;;;2.40;;
6374;SDS011;35400;45.472;-122.822;2022-09-20T11:37:38;4.07;;;2.43;;
6374;SDS011;35400;45.472;-122.822;2022-09-20T11:43:37;2.37;;;2.07;;
6374;SDS011;35400;45.472;-122.822;2022-09-20T11:46:10;4.50;;;2.10;;
6374;SDS011;35400;45.472;-122.822;2022-09-20T11:48:51;2.47;;;2.27;;
6374;SDS011;35400;45.472;-122.822;2022-09-20T11:57:44;3.57;;;2.43;;
6374;SDS011;35400;45.472;-122.822;2022-09-20T12:00:27;3.80;;;2.60;;
6374;SDS011;35400;45.472;-122.822;2022-09-20T12:02:59;3.23;;;2.90;;
6374;SDS011;35400;45.472;-122.822;2022-09-20T12:08:03;4.67;;;2.50;;
6374;SDS011;35400;45.472;-122.822;2022-09-20T12:10:59;3.63;;;2.87;;
6374;SDS011;35400;45.472;-122.822;2022-09-20T12:13:30;3.83;;;2.50;;
6374;SDS011;35400;45.472;-122.822;2022-09-20T12:16:01;3.83;;;2.70;;
6374;SDS011;35400;45.472;-122.822;2022-09-20T12:21:19;4.47;;;2.57;;
6374;SDS011;35400;45.472;-122.822;2022-09-20T12:34:00;3.17;;;2.30;;
6374;SDS011;35400;45.472;-122.822;2022-09-20T12:36:43;2.67;;;2.17;;
6374;SDS011;35400;45.472;-122.822;2022-09-20T12:39:23;3.73;;;2.50;;
6374;SDS011;35400;45.472;-122.822;2022-09-20T12:44:40;3.63;;;2.33;;
6374;SDS011;35400;45.472;-122.822;2022-09-20T12:57:59;2.27;;;2.07;;
6374;SDS011;35400;45.472;-122.822;2022-09-20T13:03:30;2.80;;;2.10;;
6374;SDS011;35400;45.472;-122.822;2022-09-20T13:11:42;2.27;;;2.07;;
6374;SDS011;35400;45.472;-122.822;2022-09-20T13:16:56;2.53;;;2.33;;
6374;SDS011;35400;45.472;-122.822;2022-09-20T13:19:32;2.47;;;1.90;;
6374;SDS011;35400;45.472;-122.822;2022-09-20T13:25:00;2.13;;;1.93;;
6374;SDS011;35400;45.472;-122.822;2022-09-20T13:27:39;3.10;;;2.20;;
6374;SDS011;35400;45.472;-122.822;2022-09-20T13:30:21;2.60;;;2.40;;
6374;SDS011;35400;45.472;-122.822;2022-09-20T13:32:50;2.70;;;2.23;;
6374;SDS011;35400;45.472;-122.822;2022-09-20T13:35:21;2.93;;;2.40;;
6374;SDS011;35400;45.472;-122.822;2022-09-20T13:37:57;3.03;;;2.20;;
6374;SDS011;35400;45.472;-122.822;2022-09-20T13:45:56;2.20;;;2.00;;
6374;SDS011;35400;45.472;-122.822;2022-09-20T13:48:29;2.57;;;2.27;;
6374;SDS011;35400;45.472;-122.822;2022-09-20T13:50:56;2.53;;;2.00;;
6374;SDS011;35400;45.472;-122.822;2022-09-20T13:53:24;2.73;;;2.20;;
6374;SDS011;35400;45.472;-122.822;2022-09-20T13:55:52;3.63;;;2.27;;
6374;SDS011;35400;45.472;-122.822;2022-09-20T13:58:26;2.70;;;2.30;;
6374;SDS011;35400;45.472;-122.822;2022-09-20T14:00:55;3.23;;;2.70;;
6374;SDS011;35400;45.472;-122.822;2022-09-20T14:03:27;2.53;;;2.20;;
6374;SDS011;35400;45.472;-122.822;2022-09-20T14:05:57;2.23;;;2.03;;
6374;SDS011;35400;45.472;-122.822;2022-09-20T14:08:45;3.80;;;2.10;;
6374;SDS011;35400;45.472;-122.822;2022-09-20T14:11:22;3.77;;;2.50;;
6374;SDS011;35400;45.472;-122.822;2022-09-20T14:13:59;4.43;;;2.60;;
6374;SDS011;35400;45.472;-122.822;2022-09-20T14:16:28;4.03;;;2.40;;
6374;SDS011;35400;45.472;-122.822;2022-09-20T14:19:00;3.30;;;2.37;;
6374;SDS011;35400;45.472;-122.822;2022-09-20T14:21:30;3.83;;;2.83;;
6374;SDS011;35400;45.472;-122.822;2022-09-20T14:24:04;5.70;;;2.50;;
6374;SDS011;35400;45.472;-122.822;2022-09-20T14:27:01;5.33;;;2.80;;
6374;SDS011;35400;45.472;-122.822;2022-09-20T14:29:44;4.97;;;2.57;;
6374;SDS011;35400;45.472;-122.822;2022-09-20T14:40:23;3.67;;;2.60;;
6374;SDS011;35400;45.472;-122.822;2022-09-20T14:42:52;3.63;;;2.50;;
6374;SDS011;35400;45.472;-122.822;2022-09-20T14:50:32;3.53;;;2.10;;
6374;SDS011;35400;45.472;-122.822;2022-09-20T14:55:53;5.47;;;2.60;;
6374;SDS011;35400;45.472;-122.822;2022-09-20T14:58:21;3.90;;;2.80;;
6374;SDS011;35400;45.472;-122.822;2022-09-20T15:00:54;3.37;;;2.80;;
6374;SDS011;35400;45.472;-122.822;2022-09-20T15:03:30;7.33;;;3.93;;
6374;SDS011;35400;45.472;-122.822;2022-09-20T15:05:59;5.17;;;3.27;;
6374;SDS011;35400;45.472;-122.822;2022-09-20T15:08:25;3.37;;;3.00;;
6374;SDS011;35400;45.472;-122.822;2022-09-20T15:10:53;5.30;;;3.13;;
6374;SDS011;35400;45.472;-122.822;2022-09-20T15:13:20;5.20;;;3.07;;
6374;SDS011;35400;45.472;-122.822;2022-09-20T15:15:48;3.83;;;3.00;;
6374;SDS011;35400;45.472;-122.822;2022-09-20T15:18:21;6.27;;;3.30;;
6374;SDS011;35400;45.472;-122.822;2022-09-20T15:20:53;6.47;;;3.43;;
6374;SDS011;35400;45.472;-122.822;2022-09-20T15:23:20;5.10;;;2.90;;
6374;SDS011;35400;45.472;-122.822;2022-09-20T15:25:50;5.23;;;2.90;;
6374;SDS011;35400;45.472;-122.822;2022-09-20T15:28:18;3.07;;;2.60;;
6374;SDS011;35400;45.472;-122.822;2022-09-20T15:30:46;4.33;;;2.70;;
6374;SDS011;35400;45.472;-122.822;2022-09-20T15:33:15;3.83;;;2.90;;
6374;SDS011;35400;45.472;-122.822;2022-09-20T15:35:43;3.03;;;2.70;;
6374;SDS011;35400;45.472;-122.822;2022-09-20T15:38:10;3.80;;;2.77;;
6374;SDS011;35400;45.472;-122.822;2022-09-20T15:40:39;4.23;;;3.00;;
6374;SDS011;35400;45.472;-122.822;2022-09-20T15:43:06;3.63;;;2.70;;
6374;SDS011;35400;45.472;-122.822;2022-09-20T15:45:34;3.93;;;2.77;;
6374;SDS011;35400;45.472;-122.822;2022-09-20T15:48:13;3.33;;;2.57;;
6374;SDS011;35400;45.472;-122.822;2022-09-20T15:51:03;5.13;;;2.80;;
6374;SDS011;35400;45.472;-122.822;2022-09-20T15:53:36;3.50;;;3.03;;
6374;SDS011;35400;45.472;-122.822;2022-09-20T15:56:16;4.30;;;2.90;;
6374;SDS011;35400;45.472;-122.822;2022-09-20T15:58:49;5.60;;;2.87;;
6374;SDS011;35400;45.472;-122.822;2022-09-20T16:01:42;3.63;;;2.27;;
6374;SDS011;35400;45.472;-122.822;2022-09-20T16:04:17;4.37;;;2.97;;
6374;SDS011;35400;45.472;-122.822;2022-09-20T16:06:45;4.30;;;2.87;;
6374;SDS011;35400;45.472;-122.822;2022-09-20T16:09:14;3.13;;;2.83;;
6374;SDS011;35400;45.472;-122.822;2022-09-20T16:11:42;5.03;;;3.10;;
6374;SDS011;35400;45.472;-122.822;2022-09-20T16:14:10;2.63;;;2.40;;
6374;SDS011;35400;45.472;-122.822;2022-09-20T16:16:37;4.83;;;3.33;;
6374;SDS011;35400;45.472;-122.822;2022-09-20T16:19:03;4.67;;;2.60;;
6374;SDS011;35400;45.472;-122.822;2022-09-20T16:21:48;5.23;;;3.40;;
6374;SDS011;35400;45.472;-122.822;2022-09-20T16:24:28;4.77;;;3.30;;
6374;SDS011;35400;45.472;-122.822;2022-09-20T16:26:58;3.47;;;2.90;;
6374;SDS011;35400;45.472;-122.822;2022-09-20T16:29:26;5.17;;;3.50;;
6374;SDS011;35400;45.472;-122.822;2022-09-20T16:31:57;5.07;;;3.03;;
6374;SDS011;35400;45.472;-122.822;2022-09-20T16:34:25;5.50;;;3.23;;
6374;SDS011;35400;45.472;-122.822;2022-09-20T16:39:28;3.40;;;3.10;;
6374;SDS011;35400;45.472;-122.822;2022-09-20T16:41:56;3.23;;;2.93;;
6374;SDS011;35400;45.472;-122.822;2022-09-20T16:44:31;8.93;;;3.10;;
6374;SDS011;35400;45.472;-122.822;2022-09-20T16:47:00;2.67;;;2.42;;
6374;SDS011;35400;45.472;-122.822;2022-09-20T16:49:34;7.20;;;3.53;;
6374;SDS011;35400;45.472;-122.822;2022-09-20T16:52:05;4.63;;;3.10;;
6374;SDS011;35400;45.472;-122.822;2022-09-20T16:54:33;5.05;;;2.85;;
6374;SDS011;35400;45.472;-122.822;2022-09-20T16:57:00;3.63;;;2.73;;
6374;SDS011;35400;45.472;-122.822;2022-09-20T16:59:27;4.50;;;2.90;;
6374;SDS011;35400;45.472;-122.822;2022-09-20T17:01:54;4.72;;;2.78;;
6374;SDS011;35400;45.472;-122.822;2022-09-20T17:04:21;3.03;;;2.72;;
6374;SDS011;35400;45.472;-122.822;2022-09-20T17:06:48;2.72;;;2.50;;
6374;SDS011;35400;45.472;-122.822;2022-09-20T17:09:16;3.63;;;2.40;;
6374;SDS011;35400;45.472;-122.822;2022-09-20T17:11:44;6.28;;;2.45;;
6374;SDS011;35400;45.472;-122.822;2022-09-20T17:14:15;3.85;;;2.15;;
6374;SDS011;35400;45.472;-122.822;2022-09-20T17:16:43;3.53;;;2.58;;
6374;SDS011;35400;45.472;-122.822;2022-09-20T17:19:12;2.47;;;2.28;;
6374;SDS011;35400;45.472;-122.822;2022-09-20T17:21:43;2.72;;;2.17;;
6374;SDS011;35400;45.472;-122.822;2022-09-20T17:24:14;3.00;;;2.53;;
6374;SDS011;35400;45.472;-122.822;2022-09-20T17:26:43;4.38;;;2.60;;
6374;SDS011;35400;45.472;-122.822;2022-09-20T17:29:11;3.67;;;2.55;;
6374;SDS011;35400;45.472;-122.822;2022-09-20T17:31:43;4.25;;;2.42;;
6374;SDS011;35400;45.472;-122.822;2022-09-20T17:34:12;4.93;;;2.35;;
6374;SDS011;35400;45.472;-122.822;2022-09-20T17:36:43;1.83;;;1.65;;
6374;SDS011;35400;45.472;-122.822;2022-09-20T17:39:11;4.47;;;2.22;;
6374;SDS011;35400;45.472;-122.822;2022-09-20T17:41:40;3.35;;;2.05;;
6374;SDS011;35400;45.472;-122.822;2022-09-20T17:44:09;4.07;;;2.13;;
6374;SDS011;35400;45.472;-122.822;2022-09-20T17:46:37;3.53;;;2.28;;
6374;SDS011;35400;45.472;-122.822;2022-09-20T17:49:06;3.33;;;2.00;;
6374;SDS011;35400;45.472;-122.822;2022-09-20T17:51:38;3.25;;;2.10;;
6374;SDS011;35400;45.472;-122.822;2022-09-20T17:54:06;10.20;;;3.00;;
6374;SDS011;35400;45.472;-122.822;2022-09-20T17:56:33;5.10;;;1.88;;
6374;SDS011;35400;45.472;-122.822;2022-09-20T17:59:01;3.03;;;1.95;;
6374;SDS011;35400;45.472;-122.822;2022-09-20T18:01:30;4.43;;;2.08;;
6374;SDS011;35400;45.472;-122.822;2022-09-20T18:03:59;3.53;;;1.60;;
6374;SDS011;35400;45.472;-122.822;2022-09-20T18:06:28;3.15;;;1.75;;
6374;SDS011;35400;45.472;-122.822;2022-09-20T18:09:00;1.83;;;1.73;;
6374;SDS011;35400;45.472;-122.822;2022-09-20T18:11:33;3.08;;;1.83;;
6374;SDS011;35400;45.472;-122.822;2022-09-20T18:14:02;3.90;;;2.10;;
6374;SDS011;35400;45.472;-122.822;2022-09-20T18:16:31;2.42;;;1.75;;
6374;SDS011;35400;45.472;-122.822;2022-09-20T18:18:59;2.15;;;1.90;;
6374;SDS011;35400;45.472;-122.822;2022-09-20T18:21:28;2.97;;;2.10;;
6374;SDS011;35400;45.472;-122.822;2022-09-20T18:23:55;2.92;;;2.05;;
6374;SDS011;35400;45.472;-122.822;2022-09-20T18:26:24;3.15;;;1.65;;
6374;SDS011;35400;45.472;-122.822;2022-09-20T18:29:04;3.05;;;1.50;;
6374;SDS011;35400;45.472;-122.822;2022-09-20T18:31:36;1.90;;;1.60;;
6374;SDS011;35400;45.472;-122.822;2022-09-20T18:34:07;1.60;;;1.50;;
6374;SDS011;35400;45.472;-122.822;2022-09-20T18:36:37;1.67;;;1.58;;
6374;SDS011;35400;45.472;-122.822;2022-09-20T18:39:04;2.63;;;1.50;;
6374;SDS011;35400;45.472;-122.822;2022-09-20T18:41:33;3.20;;;1.88;;
6374;SDS011;35400;45.472;-122.822;2022-09-20T18:44:03;3.20;;;1.50;;
6374;SDS011;35400;45.472;-122.822;2022-09-20T18:46:32;2.55;;;1.90;;
6374;SDS011;35400;45.472;-122.822;2022-09-20T18:49:04;1.70;;;1.60;;
6374;SDS011;35400;45.472;-122.822;2022-09-20T18:51:32;2.33;;;1.65;;
6374;SDS011;35400;45.472;-122.822;2022-09-20T18:54:00;2.42;;;1.70;;
6374;SDS011;35400;45.472;-122.822;2022-09-20T18:56:30;1.98;;;1.85;;
6374;SDS011;35400;45.472;-122.822;2022-09-20T18:59:03;1.70;;;1.60;;
6374;SDS011;35400;45.472;-122.822;2022-09-20T19:04:28;3.10;;;1.60;;
6374;SDS011;35400;45.472;-122.822;2022-09-20T19:09:57;2.03;;;1.33;;
6374;SDS011;35400;45.472;-122.822;2022-09-20T19:18:18;2.58;;;1.77;;
6374;SDS011;35400;45.472;-122.822;2022-09-20T19:20:53;2.60;;;1.50;;
6374;SDS011;35400;45.472;-122.822;2022-09-20T19:28:42;2.72;;;1.42;;
6374;SDS011;35400;45.472;-122.822;2022-09-20T19:31:18;1.63;;;1.40;;
6374;SDS011;35400;45.472;-122.822;2022-09-20T19:33:47;4.63;;;2.08;;
6374;SDS011;35400;45.472;-122.822;2022-09-20T19:36:15;2.83;;;1.40;;
6374;SDS011;35400;45.472;-122.822;2022-09-20T19:50:13;1.80;;;1.40;;
6374;SDS011;35400;45.472;-122.822;2022-09-20T19:52:41;2.65;;;1.55;;
6374;SDS011;35400;45.472;-122.822;2022-09-20T19:55:10;3.47;;;1.55;;
6374;SDS011;35400;45.472;-122.822;2022-09-20T19:57:41;2.63;;;1.60;;
6374;SDS011;35400;45.472;-122.822;2022-09-20T20:00:15;1.75;;;1.65;;
6374;SDS011;35400;45.472;-122.822;2022-09-20T20:02:44;1.70;;;1.60;;
6374;SDS011;35400;45.472;-122.822;2022-09-20T20:05:13;1.52;;;1.42;;
6374;SDS011;35400;45.472;-122.822;2022-09-20T20:10:25;2.13;;;1.35;;
6374;SDS011;35400;45.472;-122.822;2022-09-20T20:16:02;3.88;;;1.73;;
6374;SDS011;35400;45.472;-122.822;2022-09-20T20:18:36;2.92;;;1.58;;
6374;SDS011;35400;45.472;-122.822;2022-09-20T20:24:44;1.70;;;1.60;;
6374;SDS011;35400;45.472;-122.822;2022-09-20T20:27:17;3.10;;;1.60;;
6374;SDS011;35400;45.472;-122.822;2022-09-20T20:29:45;2.35;;;1.30;;
6374;SDS011;35400;45.472;-122.822;2022-09-20T20:32:12;2.58;;;1.60;;
6374;SDS011;35400;45.472;-122.822;2022-09-20T20:34:39;1.73;;;1.63;;
6374;SDS011;35400;45.472;-122.822;2022-09-20T20:37:06;3.85;;;1.90;;
6374;SDS011;35400;45.472;-122.822;2022-09-20T20:39:33;1.98;;;1.50;;
6374;SDS011;35400;45.472;-122.822;2022-09-20T20:42:01;3.17;;;1.88;;
6374;SDS011;35400;45.472;-122.822;2022-09-20T20:44:29;1.73;;;1.63;;
6374;SDS011;35400;45.472;-122.822;2022-09-20T20:46:57;4.53;;;1.77;;
6374;SDS011;35400;45.472;-122.822;2022-09-20T20:49:23;3.38;;;1.65;;
6374;SDS011;35400;45.472;-122.822;2022-09-20T20:51:50;2.05;;;1.85;;
6374;SDS011;35400;45.472;-122.822;2022-09-20T20:54:17;2.30;;;1.73;;
6374;SDS011;35400;45.472;-122.822;2022-09-20T20:56:45;3.05;;;1.70;;
6374;SDS011;35400;45.472;-122.822;2022-09-20T20:59:12;2.35;;;1.83;;
6374;SDS011;35400;45.472;-122.822;2022-09-20T21:01:41;1.95;;;1.70;;
6374;SDS011;35400;45.472;-122.822;2022-09-20T21:04:12;2.95;;;1.70;;